sensor_id;sensor_type;location;lat;lon;timestamp;P1;durP1;ratioP1;P2;durP2;ratioP2
40162;SDS011;25881;47.462;19.304;2023-04-24T00:02:11;6.78;;;3.45;;
40162;SDS011;25881;47.462;19.304;2023-04-24T00:04:39;4.80;;;2.95;;
40162;SDS011;25881;47.462;19.304;2023-04-24T00:07:10;5.15;;;3.03;;
40162;SDS011;25881;47.462;19.304;2023-04-24T00:09:36;5.75;;;3.50;;
40162;SDS011;25881;47.462;19.304;2023-04-24T00:12:01;5.95;;;3.22;;
40162;SDS011;25881;47.462;19.304;2023-04-24T00:14:29;5.43;;;3.50;;
40162;SDS011;25881;47.462;19.304;2023-04-24T00:16:54;5.30;;;3.45;;
40162;SDS011;25881;47.462;19.304;2023-04-24T00:19:20;9.90;;;3.27;;
40162;SDS011;25881;47.462;19.304;2023-04-24T00:21:46;16.83;;;3.33;;
40162;SDS011;25881;47.462;19.304;2023-04-24T00:24:15;4.78;;;3.25;;
40162;SDS011;25881;47.462;19.304;2023-04-24T00:26:40;9.05;;;3.58;;
40162;SDS011;25881;47.462;19.304;2023-04-24T00:29:06;6.88;;;3.40;;
40162;SDS011;25881;47.462;19.304;2023-04-24T00:31:33;7.10;;;3.50;;
40162;SDS011;25881;47.462;19.304;2023-04-24T00:34:00;6.63;;;3.72;;
40162;SDS011;25881;47.462;19.304;2023-04-24T00:36:27;6.13;;;3.45;;
40162;SDS011;25881;47.462;19.304;2023-04-24T00:38:54;5.82;;;2.95;;
40162;SDS011;25881;47.462;19.304;2023-04-24T00:41:20;6.65;;;3.70;;
40162;SDS011;25881;47.462;19.304;2023-04-24T00:43:47;6.93;;;3.28;;
40162;SDS011;25881;47.462;19.304;2023-04-24T00:46:14;5.63;;;3.40;;
40162;SDS011;25881;47.462;19.304;2023-04-24T00:48:40;8.70;;;3.75;;
40162;SDS011;25881;47.462;19.304;2023-04-24T00:51:05;9.82;;;3.38;;
40162;SDS011;25881;47.462;19.304;2023-04-24T00:53:31;4.75;;;3.30;;
40162;SDS011;25881;47.462;19.304;2023-04-24T00:55:57;6.40;;;3.67;;
40162;SDS011;25881;47.462;19.304;2023-04-24T00:58:23;3.75;;;3.08;;
40162;SDS011;25881;47.462;19.304;2023-04-24T01:00:49;8.68;;;3.30;;
40162;SDS011;25881;47.462;19.304;2023-04-24T01:03:18;4.65;;;3.33;;
40162;SDS011;25881;47.462;19.304;2023-04-24T01:05:43;7.10;;;3.58;;
40162;SDS011;25881;47.462;19.304;2023-04-24T01:08:10;6.90;;;3.60;;
40162;SDS011;25881;47.462;19.304;2023-04-24T01:10:36;6.78;;;3.20;;
40162;SDS011;25881;47.462;19.304;2023-04-24T01:13:04;6.20;;;3.63;;
40162;SDS011;25881;47.462;19.304;2023-04-24T01:15:31;4.93;;;3.00;;
40162;SDS011;25881;47.462;19.304;2023-04-24T01:17:57;7.05;;;3.67;;
40162;SDS011;25881;47.462;19.304;2023-04-24T01:20:24;5.80;;;3.58;;
40162;SDS011;25881;47.462;19.304;2023-04-24T01:22:51;4.68;;;3.15;;
40162;SDS011;25881;47.462;19.304;2023-04-24T01:25:18;7.22;;;3.97;;
40162;SDS011;25881;47.462;19.304;2023-04-24T01:27:44;6.93;;;3.97;;
40162;SDS011;25881;47.462;19.304;2023-04-24T01:30:11;6.45;;;4.05;;
40162;SDS011;25881;47.462;19.304;2023-04-24T01:32:38;8.07;;;3.45;;
40162;SDS011;25881;47.462;19.304;2023-04-24T01:35:04;5.80;;;3.70;;
40162;SDS011;25881;47.462;19.304;2023-04-24T01:37:31;4.95;;;3.08;;
40162;SDS011;25881;47.462;19.304;2023-04-24T01:39:58;6.82;;;3.35;;
40162;SDS011;25881;47.462;19.304;2023-04-24T01:42:23;6.10;;;3.85;;
40162;SDS011;25881;47.462;19.304;2023-04-24T01:44:49;7.22;;;3.17;;
40162;SDS011;25881;47.462;19.304;2023-04-24T01:47:16;10.73;;;3.38;;
40162;SDS011;25881;47.462;19.304;2023-04-24T01:49:44;7.82;;;3.35;;
40162;SDS011;25881;47.462;19.304;2023-04-24T01:54:36;5.50;;;3.15;;
40162;SDS011;25881;47.462;19.304;2023-04-24T01:57:02;10.80;;;3.40;;
40162;SDS011;25881;47.462;19.304;2023-04-24T01:59:28;6.40;;;3.83;;
40162;SDS011;25881;47.462;19.304;2023-04-24T02:01:54;7.18;;;3.58;;
40162;SDS011;25881;47.462;19.304;2023-04-24T02:04:20;5.70;;;3.55;;
40162;SDS011;25881;47.462;19.304;2023-04-24T02:06:45;7.75;;;3.50;;
40162;SDS011;25881;47.462;19.304;2023-04-24T02:09:11;7.55;;;3.95;;
40162;SDS011;25881;47.462;19.304;2023-04-24T02:11:36;8.50;;;3.70;;
40162;SDS011;25881;47.462;19.304;2023-04-24T02:14:01;8.15;;;4.20;;
40162;SDS011;25881;47.462;19.304;2023-04-24T02:16:27;5.28;;;3.38;;
40162;SDS011;25881;47.462;19.304;2023-04-24T02:18:55;7.75;;;3.95;;
40162;SDS011;25881;47.462;19.304;2023-04-24T02:21:21;6.38;;;3.65;;
40162;SDS011;25881;47.462;19.304;2023-04-24T02:23:46;6.75;;;3.45;;
40162;SDS011;25881;47.462;19.304;2023-04-24T02:26:11;5.25;;;3.33;;
40162;SDS011;25881;47.462;19.304;2023-04-24T02:28:37;5.82;;;3.63;;
40162;SDS011;25881;47.462;19.304;2023-04-24T02:31:03;7.35;;;4.20;;
40162;SDS011;25881;47.462;19.304;2023-04-24T02:33:28;8.00;;;3.47;;
40162;SDS011;25881;47.462;19.304;2023-04-24T02:35:54;7.18;;;3.92;;
40162;SDS011;25881;47.462;19.304;2023-04-24T02:38:19;7.75;;;4.05;;
40162;SDS011;25881;47.462;19.304;2023-04-24T02:40:45;7.57;;;3.92;;
40162;SDS011;25881;47.462;19.304;2023-04-24T02:43:12;8.15;;;4.47;;
40162;SDS011;25881;47.462;19.304;2023-04-24T02:45:37;8.82;;;4.38;;
40162;SDS011;25881;47.462;19.304;2023-04-24T02:48:03;7.20;;;3.88;;
40162;SDS011;25881;47.462;19.304;2023-04-24T02:50:28;7.53;;;4.05;;
40162;SDS011;25881;47.462;19.304;2023-04-24T02:52:55;48.40;;;16.85;;
40162;SDS011;25881;47.462;19.304;2023-04-24T02:55:22;26.73;;;10.38;;
40162;SDS011;25881;47.462;19.304;2023-04-24T02:57:49;12.63;;;6.05;;
40162;SDS011;25881;47.462;19.304;2023-04-24T03:00:16;9.15;;;4.70;;
40162;SDS011;25881;47.462;19.304;2023-04-24T03:02:42;7.95;;;4.22;;
40162;SDS011;25881;47.462;19.304;2023-04-24T03:05:08;6.75;;;4.32;;
40162;SDS011;25881;47.462;19.304;2023-04-24T03:07:37;6.03;;;3.63;;
40162;SDS011;25881;47.462;19.304;2023-04-24T03:10:03;8.20;;;4.13;;
40162;SDS011;25881;47.462;19.304;2023-04-24T03:12:31;6.97;;;4.33;;
40162;SDS011;25881;47.462;19.304;2023-04-24T03:14:57;10.40;;;4.43;;
40162;SDS011;25881;47.462;19.304;2023-04-24T03:17:22;8.15;;;4.65;;
40162;SDS011;25881;47.462;19.304;2023-04-24T03:19:48;11.13;;;4.20;;
40162;SDS011;25881;47.462;19.304;2023-04-24T03:22:15;9.38;;;4.47;;
40162;SDS011;25881;47.462;19.304;2023-04-24T03:24:41;7.53;;;4.40;;
40162;SDS011;25881;47.462;19.304;2023-04-24T03:27:08;7.55;;;5.07;;
40162;SDS011;25881;47.462;19.304;2023-04-24T03:29:34;8.25;;;4.75;;
40162;SDS011;25881;47.462;19.304;2023-04-24T03:32:01;7.55;;;5.47;;
40162;SDS011;25881;47.462;19.304;2023-04-24T03:34:27;13.55;;;7.22;;
40162;SDS011;25881;47.462;19.304;2023-04-24T03:36:53;9.45;;;4.95;;
40162;SDS011;25881;47.462;19.304;2023-04-24T03:39:18;8.40;;;5.03;;
40162;SDS011;25881;47.462;19.304;2023-04-24T03:41:44;8.40;;;4.63;;
40162;SDS011;25881;47.462;19.304;2023-04-24T03:44:10;7.60;;;4.45;;
40162;SDS011;25881;47.462;19.304;2023-04-24T03:46:35;6.57;;;3.90;;
40162;SDS011;25881;47.462;19.304;2023-04-24T03:49:01;7.78;;;3.65;;
40162;SDS011;25881;47.462;19.304;2023-04-24T03:51:26;8.55;;;4.43;;
40162;SDS011;25881;47.462;19.304;2023-04-24T03:53:53;7.25;;;4.03;;
40162;SDS011;25881;47.462;19.304;2023-04-24T03:56:18;8.40;;;4.63;;
40162;SDS011;25881;47.462;19.304;2023-04-24T03:58:44;9.05;;;4.65;;
40162;SDS011;25881;47.462;19.304;2023-04-24T04:01:09;11.90;;;4.68;;
40162;SDS011;25881;47.462;19.304;2023-04-24T04:03:37;6.53;;;4.30;;
40162;SDS011;25881;47.462;19.304;2023-04-24T04:06:02;8.48;;;4.55;;
40162;SDS011;25881;47.462;19.304;2023-04-24T04:08:28;7.78;;;4.60;;
40162;SDS011;25881;47.462;19.304;2023-04-24T04:10:53;9.07;;;4.90;;
40162;SDS011;25881;47.462;19.304;2023-04-24T04:13:18;8.50;;;4.80;;
40162;SDS011;25881;47.462;19.304;2023-04-24T04:15:45;13.40;;;5.05;;
40162;SDS011;25881;47.462;19.304;2023-04-24T04:18:11;7.45;;;3.90;;
40162;SDS011;25881;47.462;19.304;2023-04-24T04:20:36;7.50;;;4.43;;
40162;SDS011;25881;47.462;19.304;2023-04-24T04:23:02;6.97;;;4.18;;
40162;SDS011;25881;47.462;19.304;2023-04-24T04:25:28;7.85;;;4.78;;
40162;SDS011;25881;47.462;19.304;2023-04-24T04:27:54;7.78;;;4.72;;
40162;SDS011;25881;47.462;19.304;2023-04-24T04:30:19;7.20;;;4.45;;
40162;SDS011;25881;47.462;19.304;2023-04-24T04:32:45;7.32;;;4.50;;
40162;SDS011;25881;47.462;19.304;2023-04-24T04:35:11;6.50;;;4.30;;
40162;SDS011;25881;47.462;19.304;2023-04-24T04:37:37;7.45;;;4.00;;
40162;SDS011;25881;47.462;19.304;2023-04-24T04:40:03;6.40;;;3.85;;
40162;SDS011;25881;47.462;19.304;2023-04-24T04:42:32;6.80;;;4.43;;
40162;SDS011;25881;47.462;19.304;2023-04-24T04:44:59;7.20;;;4.18;;
40162;SDS011;25881;47.462;19.304;2023-04-24T04:47:25;7.10;;;4.68;;
40162;SDS011;25881;47.462;19.304;2023-04-24T04:49:51;9.38;;;4.57;;
40162;SDS011;25881;47.462;19.304;2023-04-24T04:52:17;6.20;;;4.07;;
40162;SDS011;25881;47.462;19.304;2023-04-24T04:54:45;6.88;;;3.97;;
40162;SDS011;25881;47.462;19.304;2023-04-24T04:57:11;7.85;;;5.20;;
40162;SDS011;25881;47.462;19.304;2023-04-24T04:59:37;10.13;;;4.75;;
40162;SDS011;25881;47.462;19.304;2023-04-24T05:02:03;8.90;;;4.73;;
40162;SDS011;25881;47.462;19.304;2023-04-24T05:04:28;9.57;;;5.10;;
40162;SDS011;25881;47.462;19.304;2023-04-24T05:06:53;7.88;;;4.82;;
40162;SDS011;25881;47.462;19.304;2023-04-24T05:09:19;7.75;;;4.07;;
40162;SDS011;25881;47.462;19.304;2023-04-24T05:11:45;9.75;;;5.35;;
40162;SDS011;25881;47.462;19.304;2023-04-24T05:14:12;7.65;;;4.75;;
40162;SDS011;25881;47.462;19.304;2023-04-24T05:16:38;7.72;;;4.13;;
40162;SDS011;25881;47.462;19.304;2023-04-24T05:19:05;10.07;;;5.07;;
40162;SDS011;25881;47.462;19.304;2023-04-24T05:21:31;7.40;;;4.80;;
40162;SDS011;25881;47.462;19.304;2023-04-24T05:23:57;7.40;;;4.72;;
40162;SDS011;25881;47.462;19.304;2023-04-24T05:26:23;8.07;;;5.30;;
40162;SDS011;25881;47.462;19.304;2023-04-24T05:28:49;11.00;;;5.30;;
40162;SDS011;25881;47.462;19.304;2023-04-24T05:31:16;11.35;;;5.20;;
40162;SDS011;25881;47.462;19.304;2023-04-24T05:33:42;7.03;;;4.60;;
40162;SDS011;25881;47.462;19.304;2023-04-24T05:36:09;8.70;;;5.22;;
40162;SDS011;25881;47.462;19.304;2023-04-24T05:38:35;9.32;;;5.45;;
40162;SDS011;25881;47.462;19.304;2023-04-24T05:41:02;9.82;;;5.05;;
40162;SDS011;25881;47.462;19.304;2023-04-24T05:43:28;7.32;;;4.55;;
40162;SDS011;25881;47.462;19.304;2023-04-24T05:45:54;9.27;;;4.80;;
40162;SDS011;25881;47.462;19.304;2023-04-24T05:48:21;9.55;;;5.47;;
40162;SDS011;25881;47.462;19.304;2023-04-24T05:50:47;6.95;;;4.63;;
40162;SDS011;25881;47.462;19.304;2023-04-24T05:53:14;10.32;;;5.45;;
40162;SDS011;25881;47.462;19.304;2023-04-24T05:55:41;6.80;;;4.57;;
40162;SDS011;25881;47.462;19.304;2023-04-24T05:58:07;9.02;;;5.30;;
40162;SDS011;25881;47.462;19.304;2023-04-24T06:00:34;7.43;;;4.70;;
40162;SDS011;25881;47.462;19.304;2023-04-24T06:03:00;9.90;;;4.82;;
40162;SDS011;25881;47.462;19.304;2023-04-24T06:05:27;7.80;;;4.55;;
40162;SDS011;25881;47.462;19.304;2023-04-24T06:07:54;8.27;;;4.75;;
40162;SDS011;25881;47.462;19.304;2023-04-24T06:10:20;6.30;;;4.10;;
40162;SDS011;25881;47.462;19.304;2023-04-24T06:12:47;7.88;;;4.40;;
40162;SDS011;25881;47.462;19.304;2023-04-24T06:15:14;8.25;;;4.68;;
40162;SDS011;25881;47.462;19.304;2023-04-24T06:17:40;9.63;;;5.15;;
40162;SDS011;25881;47.462;19.304;2023-04-24T06:20:06;8.25;;;4.43;;
40162;SDS011;25881;47.462;19.304;2023-04-24T06:22:33;10.07;;;5.15;;
40162;SDS011;25881;47.462;19.304;2023-04-24T06:24:59;8.15;;;4.18;;
40162;SDS011;25881;47.462;19.304;2023-04-24T06:27:26;8.65;;;4.55;;
40162;SDS011;25881;47.462;19.304;2023-04-24T06:29:52;10.57;;;4.40;;
40162;SDS011;25881;47.462;19.304;2023-04-24T06:32:23;7.15;;;4.57;;
40162;SDS011;25881;47.462;19.304;2023-04-24T06:34:49;9.25;;;4.97;;
40162;SDS011;25881;47.462;19.304;2023-04-24T06:37:14;8.48;;;4.97;;
40162;SDS011;25881;47.462;19.304;2023-04-24T06:39:41;8.02;;;4.32;;
40162;SDS011;25881;47.462;19.304;2023-04-24T06:42:07;11.60;;;5.10;;
40162;SDS011;25881;47.462;19.304;2023-04-24T06:44:34;10.55;;;4.85;;
40162;SDS011;25881;47.462;19.304;2023-04-24T06:47:07;10.00;;;5.38;;
40162;SDS011;25881;47.462;19.304;2023-04-24T06:49:34;8.93;;;5.47;;
40162;SDS011;25881;47.462;19.304;2023-04-24T06:52:00;9.68;;;5.20;;
40162;SDS011;25881;47.462;19.304;2023-04-24T06:54:27;8.77;;;5.47;;
40162;SDS011;25881;47.462;19.304;2023-04-24T06:56:54;8.07;;;5.30;;
40162;SDS011;25881;47.462;19.304;2023-04-24T06:59:21;10.82;;;4.93;;
40162;SDS011;25881;47.462;19.304;2023-04-24T07:01:47;8.57;;;4.50;;
40162;SDS011;25881;47.462;19.304;2023-04-24T07:04:14;9.85;;;5.40;;
40162;SDS011;25881;47.462;19.304;2023-04-24T07:06:40;8.07;;;5.30;;
40162;SDS011;25881;47.462;19.304;2023-04-24T07:09:05;9.68;;;5.22;;
40162;SDS011;25881;47.462;19.304;2023-04-24T07:11:31;7.80;;;5.33;;
40162;SDS011;25881;47.462;19.304;2023-04-24T07:13:56;9.68;;;5.60;;
40162;SDS011;25881;47.462;19.304;2023-04-24T07:16:21;8.70;;;4.75;;
40162;SDS011;25881;47.462;19.304;2023-04-24T07:18:47;10.77;;;5.93;;
40162;SDS011;25881;47.462;19.304;2023-04-24T07:21:13;10.10;;;6.13;;
40162;SDS011;25881;47.462;19.304;2023-04-24T07:23:39;9.15;;;6.68;;
40162;SDS011;25881;47.462;19.304;2023-04-24T07:26:06;10.10;;;6.22;;
40162;SDS011;25881;47.462;19.304;2023-04-24T07:28:33;9.70;;;5.55;;
40162;SDS011;25881;47.462;19.304;2023-04-24T07:30:59;11.50;;;6.93;;
40162;SDS011;25881;47.462;19.304;2023-04-24T07:33:26;13.07;;;6.07;;
40162;SDS011;25881;47.462;19.304;2023-04-24T07:35:53;9.48;;;5.57;;
40162;SDS011;25881;47.462;19.304;2023-04-24T07:38:20;12.95;;;5.82;;
40162;SDS011;25881;47.462;19.304;2023-04-24T07:40:47;7.97;;;5.35;;
40162;SDS011;25881;47.462;19.304;2023-04-24T07:43:14;11.93;;;6.35;;
40162;SDS011;25881;47.462;19.304;2023-04-24T07:45:40;11.88;;;6.60;;
40162;SDS011;25881;47.462;19.304;2023-04-24T07:48:07;10.20;;;6.07;;
40162;SDS011;25881;47.462;19.304;2023-04-24T07:50:34;13.63;;;6.65;;
40162;SDS011;25881;47.462;19.304;2023-04-24T07:53:01;10.38;;;6.53;;
40162;SDS011;25881;47.462;19.304;2023-04-24T07:55:27;13.20;;;7.80;;
40162;SDS011;25881;47.462;19.304;2023-04-24T07:57:55;26.38;;;11.00;;
40162;SDS011;25881;47.462;19.304;2023-04-24T08:00:21;31.42;;;13.38;;
40162;SDS011;25881;47.462;19.304;2023-04-24T08:02:48;33.30;;;14.05;;
40162;SDS011;25881;47.462;19.304;2023-04-24T08:05:13;19.30;;;9.38;;
40162;SDS011;25881;47.462;19.304;2023-04-24T08:07:40;19.25;;;9.50;;
40162;SDS011;25881;47.462;19.304;2023-04-24T08:10:09;16.00;;;8.10;;
40162;SDS011;25881;47.462;19.304;2023-04-24T08:12:37;13.38;;;6.88;;
40162;SDS011;25881;47.462;19.304;2023-04-24T08:15:03;10.90;;;5.70;;
40162;SDS011;25881;47.462;19.304;2023-04-24T08:17:29;9.35;;;6.00;;
40162;SDS011;25881;47.462;19.304;2023-04-24T08:19:56;11.15;;;6.47;;
40162;SDS011;25881;47.462;19.304;2023-04-24T08:22:27;10.60;;;6.88;;
40162;SDS011;25881;47.462;19.304;2023-04-24T08:24:52;9.52;;;6.38;;
40162;SDS011;25881;47.462;19.304;2023-04-24T08:27:17;8.80;;;5.85;;
40162;SDS011;25881;47.462;19.304;2023-04-24T08:29:43;11.35;;;6.20;;
40162;SDS011;25881;47.462;19.304;2023-04-24T08:32:09;11.23;;;6.07;;
40162;SDS011;25881;47.462;19.304;2023-04-24T08:34:36;11.60;;;6.75;;
40162;SDS011;25881;47.462;19.304;2023-04-24T08:37:02;11.55;;;6.35;;
40162;SDS011;25881;47.462;19.304;2023-04-24T08:39:29;10.13;;;5.28;;
40162;SDS011;25881;47.462;19.304;2023-04-24T08:41:55;10.77;;;5.72;;
40162;SDS011;25881;47.462;19.304;2023-04-24T08:44:21;11.30;;;5.85;;
40162;SDS011;25881;47.462;19.304;2023-04-24T08:46:48;10.20;;;6.07;;
40162;SDS011;25881;47.462;19.304;2023-04-24T08:49:14;10.68;;;6.30;;
40162;SDS011;25881;47.462;19.304;2023-04-24T08:51:43;10.38;;;5.72;;
40162;SDS011;25881;47.462;19.304;2023-04-24T08:54:08;12.93;;;6.80;;
40162;SDS011;25881;47.462;19.304;2023-04-24T08:56:34;11.55;;;5.93;;
40162;SDS011;25881;47.462;19.304;2023-04-24T08:59:03;11.52;;;6.38;;
40162;SDS011;25881;47.462;19.304;2023-04-24T09:01:28;9.75;;;6.00;;
40162;SDS011;25881;47.462;19.304;2023-04-24T09:03:54;10.98;;;6.00;;
40162;SDS011;25881;47.462;19.304;2023-04-24T09:06:20;8.35;;;5.30;;
40162;SDS011;25881;47.462;19.304;2023-04-24T09:08:47;9.48;;;5.35;;
40162;SDS011;25881;47.462;19.304;2023-04-24T09:11:13;8.35;;;5.05;;
40162;SDS011;25881;47.462;19.304;2023-04-24T09:13:39;11.35;;;6.00;;
40162;SDS011;25881;47.462;19.304;2023-04-24T09:16:05;10.05;;;5.85;;
40162;SDS011;25881;47.462;19.304;2023-04-24T09:18:31;9.45;;;5.93;;
40162;SDS011;25881;47.462;19.304;2023-04-24T09:21:07;9.90;;;5.47;;
40162;SDS011;25881;47.462;19.304;2023-04-24T09:23:33;11.98;;;5.82;;
40162;SDS011;25881;47.462;19.304;2023-04-24T09:25:59;10.43;;;5.57;;
40162;SDS011;25881;47.462;19.304;2023-04-24T09:28:26;8.80;;;5.38;;
40162;SDS011;25881;47.462;19.304;2023-04-24T09:31:02;9.50;;;4.88;;
40162;SDS011;25881;47.462;19.304;2023-04-24T09:33:27;9.10;;;5.63;;
40162;SDS011;25881;47.462;19.304;2023-04-24T09:35:53;11.55;;;6.60;;
40162;SDS011;25881;47.462;19.304;2023-04-24T09:38:19;8.35;;;5.15;;
40162;SDS011;25881;47.462;19.304;2023-04-24T09:40:51;7.35;;;5.15;;
40162;SDS011;25881;47.462;19.304;2023-04-24T09:43:17;8.63;;;5.35;;
40162;SDS011;25881;47.462;19.304;2023-04-24T09:45:44;11.65;;;5.47;;
40162;SDS011;25881;47.462;19.304;2023-04-24T09:48:10;8.88;;;4.35;;
40162;SDS011;25881;47.462;19.304;2023-04-24T09:50:36;10.60;;;6.35;;
40162;SDS011;25881;47.462;19.304;2023-04-24T09:53:04;11.30;;;5.43;;
40162;SDS011;25881;47.462;19.304;2023-04-24T09:55:30;9.63;;;4.80;;
40162;SDS011;25881;47.462;19.304;2023-04-24T09:57:59;8.10;;;4.50;;
40162;SDS011;25881;47.462;19.304;2023-04-24T10:00:31;9.90;;;4.57;;
40162;SDS011;25881;47.462;19.304;2023-04-24T10:03:03;8.32;;;4.65;;
40162;SDS011;25881;47.462;19.304;2023-04-24T10:05:37;9.50;;;4.93;;
40162;SDS011;25881;47.462;19.304;2023-04-24T10:08:05;7.50;;;4.35;;
40162;SDS011;25881;47.462;19.304;2023-04-24T10:10:31;5.60;;;3.50;;
40162;SDS011;25881;47.462;19.304;2023-04-24T10:12:58;7.65;;;4.28;;
40162;SDS011;25881;47.462;19.304;2023-04-24T10:15:25;4.88;;;3.05;;
40162;SDS011;25881;47.462;19.304;2023-04-24T10:17:51;6.45;;;3.22;;
40162;SDS011;25881;47.462;19.304;2023-04-24T10:20:21;6.40;;;3.08;;
40162;SDS011;25881;47.462;19.304;2023-04-24T10:22:51;5.72;;;3.42;;
40162;SDS011;25881;47.462;19.304;2023-04-24T10:25:20;4.70;;;3.00;;
40162;SDS011;25881;47.462;19.304;2023-04-24T10:27:46;4.95;;;2.90;;
40162;SDS011;25881;47.462;19.304;2023-04-24T10:30:12;6.28;;;3.40;;
40162;SDS011;25881;47.462;19.304;2023-04-24T10:32:38;3.85;;;2.70;;
40162;SDS011;25881;47.462;19.304;2023-04-24T10:35:03;6.30;;;2.97;;
40162;SDS011;25881;47.462;19.304;2023-04-24T10:37:29;3.70;;;2.45;;
40162;SDS011;25881;47.462;19.304;2023-04-24T10:40:02;5.68;;;3.05;;
40162;SDS011;25881;47.462;19.304;2023-04-24T10:42:28;5.15;;;2.80;;
40162;SDS011;25881;47.462;19.304;2023-04-24T10:44:55;4.85;;;2.90;;
40162;SDS011;25881;47.462;19.304;2023-04-24T10:47:22;6.32;;;3.35;;
40162;SDS011;25881;47.462;19.304;2023-04-24T10:49:50;5.88;;;3.40;;
40162;SDS011;25881;47.462;19.304;2023-04-24T10:52:15;8.05;;;3.17;;
40162;SDS011;25881;47.462;19.304;2023-04-24T10:54:45;7.05;;;3.88;;
40162;SDS011;25881;47.462;19.304;2023-04-24T10:59:46;4.95;;;3.17;;
40162;SDS011;25881;47.462;19.304;2023-04-24T11:02:14;5.57;;;3.60;;
40162;SDS011;25881;47.462;19.304;2023-04-24T11:04:40;6.05;;;2.95;;
40162;SDS011;25881;47.462;19.304;2023-04-24T11:07:06;6.40;;;3.20;;
40162;SDS011;25881;47.462;19.304;2023-04-24T11:09:31;6.93;;;3.80;;
40162;SDS011;25881;47.462;19.304;2023-04-24T11:14:31;6.72;;;3.65;;
40162;SDS011;25881;47.462;19.304;2023-04-24T11:20:00;4.97;;;2.83;;
40162;SDS011;25881;47.462;19.304;2023-04-24T11:22:26;5.95;;;2.65;;
40162;SDS011;25881;47.462;19.304;2023-04-24T11:24:53;4.95;;;2.90;;
40162;SDS011;25881;47.462;19.304;2023-04-24T11:27:20;4.90;;;2.65;;
40162;SDS011;25881;47.462;19.304;2023-04-24T11:32:27;4.07;;;2.53;;
40162;SDS011;25881;47.462;19.304;2023-04-24T11:34:53;5.30;;;2.08;;
40162;SDS011;25881;47.462;19.304;2023-04-24T11:37:19;3.60;;;2.20;;
40162;SDS011;25881;47.462;19.304;2023-04-24T11:39:46;4.93;;;3.03;;
40162;SDS011;25881;47.462;19.304;2023-04-24T11:42:14;7.68;;;2.60;;
40162;SDS011;25881;47.462;19.304;2023-04-24T11:44:39;6.13;;;3.08;;
40162;SDS011;25881;47.462;19.304;2023-04-24T11:47:06;6.75;;;3.08;;
40162;SDS011;25881;47.462;19.304;2023-04-24T11:49:38;7.53;;;3.30;;
40162;SDS011;25881;47.462;19.304;2023-04-24T11:52:04;6.40;;;2.80;;
40162;SDS011;25881;47.462;19.304;2023-04-24T11:54:30;6.25;;;3.45;;
40162;SDS011;25881;47.462;19.304;2023-04-24T11:56:57;6.03;;;3.63;;
40162;SDS011;25881;47.462;19.304;2023-04-24T11:59:23;7.35;;;3.80;;
40162;SDS011;25881;47.462;19.304;2023-04-24T12:01:50;5.85;;;3.33;;
40162;SDS011;25881;47.462;19.304;2023-04-24T12:04:16;7.55;;;3.72;;
40162;SDS011;25881;47.462;19.304;2023-04-24T12:09:29;5.78;;;3.30;;
40162;SDS011;25881;47.462;19.304;2023-04-24T12:12:05;7.50;;;3.40;;
40162;SDS011;25881;47.462;19.304;2023-04-24T12:14:31;7.43;;;4.03;;
40162;SDS011;25881;47.462;19.304;2023-04-24T12:16:56;6.13;;;3.97;;
40162;SDS011;25881;47.462;19.304;2023-04-24T12:19:22;6.70;;;3.58;;
40162;SDS011;25881;47.462;19.304;2023-04-24T12:22:01;5.55;;;3.65;;
40162;SDS011;25881;47.462;19.304;2023-04-24T12:24:28;5.63;;;3.60;;
40162;SDS011;25881;47.462;19.304;2023-04-24T12:26:53;7.35;;;4.45;;
40162;SDS011;25881;47.462;19.304;2023-04-24T12:29:22;7.47;;;3.63;;
40162;SDS011;25881;47.462;19.304;2023-04-24T12:31:49;10.88;;;3.42;;
40162;SDS011;25881;47.462;19.304;2023-04-24T12:34:18;5.20;;;2.40;;
40162;SDS011;25881;47.462;19.304;2023-04-24T12:36:45;5.32;;;2.20;;
40162;SDS011;25881;47.462;19.304;2023-04-24T12:39:19;6.28;;;2.80;;
40162;SDS011;25881;47.462;19.304;2023-04-24T12:41:57;6.10;;;3.40;;
40162;SDS011;25881;47.462;19.304;2023-04-24T12:44:56;6.45;;;3.28;;
40162;SDS011;25881;47.462;19.304;2023-04-24T12:47:14;10.55;;;4.18;;
40162;SDS011;25881;47.462;19.304;2023-04-24T12:49:41;10.07;;;5.55;;
40162;SDS011;25881;47.462;19.304;2023-04-24T12:52:08;7.32;;;4.28;;
40162;SDS011;25881;47.462;19.304;2023-04-24T12:54:33;6.72;;;3.80;;
40162;SDS011;25881;47.462;19.304;2023-04-24T12:56:59;7.65;;;4.03;;
40162;SDS011;25881;47.462;19.304;2023-04-24T12:59:25;4.57;;;3.08;;
40162;SDS011;25881;47.462;19.304;2023-04-24T13:01:51;6.07;;;3.67;;
40162;SDS011;25881;47.462;19.304;2023-04-24T13:04:17;9.88;;;4.07;;
40162;SDS011;25881;47.462;19.304;2023-04-24T13:06:43;6.25;;;3.40;;
40162;SDS011;25881;47.462;19.304;2023-04-24T13:09:11;6.93;;;3.45;;
40162;SDS011;25881;47.462;19.304;2023-04-24T13:11:36;6.40;;;4.38;;
40162;SDS011;25881;47.462;19.304;2023-04-24T13:14:02;5.30;;;3.35;;
40162;SDS011;25881;47.462;19.304;2023-04-24T13:16:29;8.13;;;3.78;;
40162;SDS011;25881;47.462;19.304;2023-04-24T13:18:56;5.75;;;3.45;;
40162;SDS011;25881;47.462;19.304;2023-04-24T13:21:23;5.93;;;3.40;;
40162;SDS011;25881;47.462;19.304;2023-04-24T13:23:50;4.97;;;2.85;;
40162;SDS011;25881;47.462;19.304;2023-04-24T13:26:16;5.70;;;3.17;;
40162;SDS011;25881;47.462;19.304;2023-04-24T13:28:43;7.28;;;2.85;;
40162;SDS011;25881;47.462;19.304;2023-04-24T13:31:09;5.75;;;3.08;;
40162;SDS011;25881;47.462;19.304;2023-04-24T13:33:35;5.20;;;2.97;;
40162;SDS011;25881;47.462;19.304;2023-04-24T13:36:01;5.28;;;2.70;;
40162;SDS011;25881;47.462;19.304;2023-04-24T13:38:26;5.00;;;2.80;;
40162;SDS011;25881;47.462;19.304;2023-04-24T13:40:51;6.50;;;2.80;;
40162;SDS011;25881;47.462;19.304;2023-04-24T13:43:18;4.60;;;2.50;;
40162;SDS011;25881;47.462;19.304;2023-04-24T13:45:43;5.05;;;2.38;;
40162;SDS011;25881;47.462;19.304;2023-04-24T13:48:09;3.90;;;2.55;;
40162;SDS011;25881;47.462;19.304;2023-04-24T13:50:34;3.38;;;2.30;;
40162;SDS011;25881;47.462;19.304;2023-04-24T13:53:00;5.38;;;2.30;;
40162;SDS011;25881;47.462;19.304;2023-04-24T13:55:26;5.50;;;2.53;;
40162;SDS011;25881;47.462;19.304;2023-04-24T13:57:57;5.32;;;2.90;;
40162;SDS011;25881;47.462;19.304;2023-04-24T14:00:23;4.13;;;2.50;;
40162;SDS011;25881;47.462;19.304;2023-04-24T14:02:49;5.15;;;2.50;;
40162;SDS011;25881;47.462;19.304;2023-04-24T14:05:15;4.30;;;2.58;;
40162;SDS011;25881;47.462;19.304;2023-04-24T14:07:41;4.40;;;2.40;;
40162;SDS011;25881;47.462;19.304;2023-04-24T14:10:07;6.10;;;2.90;;
40162;SDS011;25881;47.462;19.304;2023-04-24T14:12:33;4.85;;;2.78;;
40162;SDS011;25881;47.462;19.304;2023-04-24T14:14:59;4.93;;;2.78;;
40162;SDS011;25881;47.462;19.304;2023-04-24T14:17:24;6.18;;;2.83;;
40162;SDS011;25881;47.462;19.304;2023-04-24T14:19:50;4.93;;;2.30;;
40162;SDS011;25881;47.462;19.304;2023-04-24T14:22:17;5.47;;;2.70;;
40162;SDS011;25881;47.462;19.304;2023-04-24T14:24:43;3.47;;;2.58;;
40162;SDS011;25881;47.462;19.304;2023-04-24T14:27:08;6.43;;;2.83;;
40162;SDS011;25881;47.462;19.304;2023-04-24T14:29:36;4.95;;;2.78;;
40162;SDS011;25881;47.462;19.304;2023-04-24T14:32:01;7.13;;;3.25;;
40162;SDS011;25881;47.462;19.304;2023-04-24T14:34:27;7.95;;;3.13;;
40162;SDS011;25881;47.462;19.304;2023-04-24T14:36:52;5.95;;;2.90;;
40162;SDS011;25881;47.462;19.304;2023-04-24T14:39:18;5.10;;;2.88;;
40162;SDS011;25881;47.462;19.304;2023-04-24T14:41:43;6.20;;;2.63;;
40162;SDS011;25881;47.462;19.304;2023-04-24T14:44:09;6.82;;;3.03;;